Time;durP1;ratioP1;P1;durP2;ratioP2;P2;SDS_P1;SDS_P2;PMS_P1;PMS_P2;Temp;Humidity;BMP_temperature;BMP_pressure;BME280_temperature;BME280_humidity;BME280_pressure;Samples;Min_cycle;Max_cycle;Signal;HPM_P1;HPM_P2
2022/05/06 00:00:06;;;;;;;6.70;3.90;;;11.50;99.90;;;;;;5011990;28;20882;-69
2022/05/06 00:02:32;;;;;;;9.17;3.97;;;11.50;99.90;;;;;;5026311;22;20587;-74
2022/05/06 00:04:59;;;;;;;5.33;3.83;;;11.60;99.90;;;;;;5015408;28;20877;-73
2022/05/06 00:07:26;;;;;;;8.10;3.40;;;11.50;99.90;;;;;;5022290;28;20472;-73
2022/05/06 00:09:52;;;;;;;7.37;3.77;;;11.50;99.90;;;;;;5009483;28;20632;-73
2022/05/06 00:12:19;;;;;;;6.07;4.40;;;11.50;99.90;;;;;;5004439;28;20530;-74
2022/05/06 00:14:47;;;;;;;5.73;4.17;;;11.50;99.90;;;;;;5011753;28;20506;-74
2022/05/06 00:17:14;;;;;;;9.97;5.20;;;11.40;99.90;;;;;;5013452;28;21090;-74
2022/05/06 00:19:42;;;;;;;4.27;3.47;;;11.30;99.90;;;;;;5001820;28;20972;-74
2022/05/06 00:22:10;;;;;;;7.37;4.03;;;11.30;99.90;;;;;;5005982;28;20946;-74
2022/05/06 00:24:36;;;;;;;6.07;4.40;;;11.30;99.90;;;;;;5011702;28;20495;-74
2022/05/06 00:27:04;;;;;;;5.60;4.27;;;11.30;99.90;;;;;;5011984;28;21466;-74
2022/05/06 00:29:31;;;;;;;9.50;4.93;;;11.30;99.90;;;;;;5006694;28;20833;-74
2022/05/06 00:31:59;;;;;;;5.23;3.60;;;11.30;99.90;;;;;;5009973;28;20507;-74
2022/05/06 00:34:27;;;;;;;6.60;3.73;;;11.30;99.90;;;;;;5003579;28;20462;-74
2022/05/06 00:36:55;;;;;;;6.97;4.70;;;11.30;99.90;;;;;;5010149;28;20439;-74
2022/05/06 00:39:21;;;;;;;7.90;3.63;;;11.00;99.90;;;;;;5005678;28;20459;-74
2022/05/06 00:41:48;;;;;;;6.67;4.20;;;10.80;99.90;;;;;;5005053;28;20484;-73
2022/05/06 00:44:15;;;;;;;9.00;3.77;;;10.80;99.90;;;;;;5009255;28;20469;-74
2022/05/06 00:46:42;;;;;;;7.27;3.67;;;10.80;99.90;;;;;;5007507;28;20567;-74
2022/05/06 00:49:12;;;;;;;7.40;3.40;;;11.00;99.90;;;;;;5012537;28;20487;-73
2022/05/06 00:51:39;;;;;;;12.27;4.87;;;11.00;99.90;;;;;;5011164;28;20520;-74
2022/05/06 00:54:06;;;;;;;4.60;3.23;;;11.00;99.90;;;;;;5010343;28;20448;-74
2022/05/06 00:56:34;;;;;;;6.00;4.37;;;10.90;99.90;;;;;;5004435;28;20522;-73
2022/05/06 00:59:00;;;;;;;4.93;3.80;;;10.80;99.90;;;;;;5011578;28;21029;-73
2022/05/06 01:01:29;;;;;;;3.83;3.47;;;10.90;99.90;;;;;;5007240;28;20993;-74
2022/05/06 01:03:56;;;;;;;6.17;4.37;;;10.80;99.90;;;;;;5008401;28;20940;-74
2022/05/06 01:06:25;;;;;;;7.93;4.23;;;10.80;99.90;;;;;;5013933;28;20439;-74
2022/05/06 01:08:52;;;;;;;7.00;4.37;;;10.70;99.90;;;;;;5010271;28;20424;-74
2022/05/06 01:11:18;;;;;;;8.70;5.77;;;10.60;99.90;;;;;;5006129;28;20477;-74
2022/05/06 01:13:47;;;;;;;5.90;4.50;;;10.60;99.90;;;;;;5008862;28;20505;-74
2022/05/06 01:16:13;;;;;;;6.57;4.70;;;10.60;99.90;;;;;;5005877;28;20526;-74
2022/05/06 01:18:41;;;;;;;7.53;4.13;;;10.70;99.90;;;;;;5013166;28;20472;-74
2022/05/06 01:21:09;;;;;;;6.80;4.30;;;10.80;99.90;;;;;;5011337;28;20539;-73
2022/05/06 01:23:38;;;;;;;5.70;3.93;;;10.70;99.90;;;;;;5009727;28;20967;-74
2022/05/06 01:26:05;;;;;;;7.70;4.17;;;10.70;99.90;;;;;;5000924;28;20449;-73
2022/05/06 01:28:34;;;;;;;6.60;3.97;;;10.70;99.90;;;;;;5008067;28;20466;-73
2022/05/06 01:31:02;;;;;;;5.90;3.13;;;10.60;99.90;;;;;;5003198;28;20440;-73
2022/05/06 01:33:30;;;;;;;10.30;4.67;;;10.30;99.90;;;;;;5006131;28;20953;-73
2022/05/06 01:36:01;;;;;;;5.33;3.80;;;10.10;99.90;;;;;;5005598;28;20451;-73
2022/05/06 01:38:33;;;;;;;6.30;4.53;;;10.00;99.90;;;;;;5007627;28;20550;-73
2022/05/06 01:41:04;;;;;;;6.07;3.67;;;10.10;99.90;;;;;;5005684;28;20841;-73
2022/05/06 01:43:38;;;;;;;5.80;3.47;;;10.20;99.90;;;;;;5013188;28;20506;-72
2022/05/06 01:46:09;;;;;;;5.17;3.70;;;10.20;99.90;;;;;;5009932;28;20465;-73
2022/05/06 01:48:37;;;;;;;7.03;3.53;;;10.20;99.90;;;;;;4990798;28;20982;-73
2022/05/06 01:51:04;;;;;;;7.40;4.73;;;10.20;99.90;;;;;;5010330;28;20460;-73
2022/05/06 01:53:31;;;;;;;5.23;4.70;;;10.10;99.90;;;;;;5003674;28;20465;-72
2022/05/06 01:55:57;;;;;;;5.23;3.60;;;10.10;99.90;;;;;;4993718;28;20468;-72
2022/05/06 01:58:25;;;;;;;7.03;4.13;;;10.10;99.90;;;;;;5006914;28;20477;-73
2022/05/06 02:00:52;;;;;;;9.90;3.40;;;10.10;99.90;;;;;;5012554;28;20468;-73
2022/05/06 02:06:03;;;;;;;9.80;5.00;;;10.10;99.90;;;;;;5015702;28;20426;-73
2022/05/06 02:08:29;;;;;;;6.33;4.50;;;10.00;99.90;;;;;;5010091;28;20440;-72
2022/05/06 02:10:56;;;;;;;6.60;4.23;;;10.00;99.90;;;;;;4997144;28;20885;-73
2022/05/06 02:13:24;;;;;;;7.43;4.07;;;10.00;99.90;;;;;;4998491;28;20460;-73
2022/05/06 02:15:51;;;;;;;7.07;4.37;;;10.00;99.90;;;;;;5008465;28;20504;-72
2022/05/06 02:18:18;;;;;;;6.20;4.13;;;9.90;99.90;;;;;;5012089;28;20927;-73
2022/05/06 02:20:44;;;;;;;6.67;3.90;;;9.80;99.90;;;;;;5011568;28;20460;-74
2022/05/06 02:23:12;;;;;;;6.33;3.77;;;9.80;99.90;;;;;;5013429;28;20982;-73
2022/05/06 02:25:42;;;;;;;7.10;4.50;;;9.80;99.90;;;;;;5006824;28;20711;-73
2022/05/06 02:28:09;;;;;;;4.60;3.47;;;9.80;99.90;;;;;;5011189;28;20427;-73
2022/05/06 02:33:24;;;;;;;5.77;4.10;;;9.80;99.90;;;;;;5013802;28;20998;-73
2022/05/06 02:35:52;;;;;;;5.13;4.20;;;9.80;99.90;;;;;;5008301;28;20440;-72
2022/05/06 02:38:19;;;;;;;7.03;4.13;;;9.90;99.90;;;;;;5009632;28;21108;-72
2022/05/06 02:40:45;;;;;;;5.43;4.23;;;9.80;99.90;;;;;;5003105;28;20492;-73
2022/05/06 02:43:12;;;;;;;5.70;4.07;;;9.70;99.90;;;;;;5001217;28;20432;-73
2022/05/06 02:45:41;;;;;;;5.10;4.03;;;9.60;99.90;;;;;;4998491;28;20486;-73
2022/05/06 02:48:08;;;;;;;10.43;4.87;;;9.60;99.90;;;;;;5002270;28;20563;-73
2022/05/06 02:50:35;;;;;;;4.40;4.00;;;9.60;99.90;;;;;;4995846;28;20464;-73
2022/05/06 02:53:02;;;;;;;6.20;4.80;;;9.60;99.90;;;;;;4994443;28;20505;-73
2022/05/06 02:55:28;;;;;;;8.20;5.27;;;9.60;99.90;;;;;;5008525;28;20447;-73
2022/05/06 02:57:55;;;;;;;9.33;3.10;;;9.50;99.90;;;;;;5009543;28;20441;-73
2022/05/06 03:00:22;;;;;;;4.10;3.13;;;9.40;99.90;;;;;;5003701;28;20491;-72
2022/05/06 03:02:50;;;;;;;5.77;5.17;;;9.50;99.90;;;;;;5011589;28;20508;-73
2022/05/06 03:05:17;;;;;;;9.40;3.77;;;9.50;99.90;;;;;;5010569;28;20526;-73
2022/05/06 03:07:44;;;;;;;6.87;6.00;;;9.60;99.90;;;;;;5009578;28;20533;-72
2022/05/06 03:10:11;;;;;;;16.33;4.07;;;9.60;99.90;;;;;;5010599;28;20461;-73
2022/05/06 03:12:38;;;;;;;13.57;4.30;;;9.50;99.90;;;;;;5002844;28;20489;-73
2022/05/06 03:15:07;;;;;;;8.87;4.23;;;9.50;99.90;;;;;;5010050;28;20552;-73
2022/05/06 03:17:34;;;;;;;6.83;3.90;;;9.40;99.90;;;;;;5003708;28;20518;-73
2022/05/06 03:20:07;;;;;;;4.63;3.27;;;9.30;99.90;;;;;;5012799;28;20562;-73
2022/05/06 03:22:38;;;;;;;5.43;4.20;;;9.30;99.90;;;;;;5012851;28;20679;-73
2022/05/06 03:25:05;;;;;;;5.67;3.90;;;9.30;99.90;;;;;;5015845;28;20968;-73
2022/05/06 03:30:17;;;;;;;8.83;5.57;;;9.40;99.90;;;;;;5011512;28;20497;-74
2022/05/06 03:32:43;;;;;;;6.33;4.20;;;9.30;99.90;;;;;;5003072;28;20490;-74
2022/05/06 03:35:12;;;;;;;6.83;3.63;;;9.30;99.90;;;;;;5001819;28;20453;-73
2022/05/06 03:37:39;;;;;;;16.57;4.13;;;9.20;99.90;;;;;;5000698;28;20501;-73
2022/05/06 03:40:07;;;;;;;21.73;4.60;;;9.20;99.90;;;;;;5002780;28;20459;-75
2022/05/06 03:42:33;;;;;;;7.70;4.80;;;9.10;99.90;;;;;;5002916;28;20477;-73
2022/05/06 03:45:02;;;;;;;5.37;3.87;;;9.20;99.90;;;;;;5000159;28;20511;-73
2022/05/06 03:47:29;;;;;;;7.30;4.30;;;9.10;99.90;;;;;;5005969;28;20435;-73
2022/05/06 03:52:39;;;;;;;5.33;4.00;;;9.10;99.90;;;;;;5011522;28;20465;-73
2022/05/06 03:55:07;;;;;;;5.53;3.83;;;9.10;99.90;;;;;;5014643;28;20464;-73
2022/05/06 03:57:33;;;;;;;6.47;4.73;;;9.00;99.90;;;;;;5016082;28;20443;-73
2022/05/06 04:00:00;;;;;;;4.10;3.40;;;9.10;99.90;;;;;;5013343;28;20505;-73
2022/05/06 04:02:27;;;;;;;14.23;5.10;;;8.70;99.90;;;;;;5012733;28;20528;-74
2022/05/06 04:04:53;;;;;;;8.90;5.70;;;8.80;99.90;;;;;;5001046;28;20536;-73
2022/05/06 04:07:20;;;;;;;6.50;4.10;;;8.80;99.90;;;;;;5008769;28;20451;-73
2022/05/06 04:09:48;;;;;;;19.90;5.47;;;8.90;99.90;;;;;;5012107;28;20482;-74
2022/05/06 04:12:15;;;;;;;10.47;5.40;;;8.90;99.90;;;;;;5001585;28;20964;-74
2022/05/06 04:14:42;;;;;;;6.23;4.00;;;8.90;99.90;;;;;;5010540;28;20440;-74
2022/05/06 04:17:09;;;;;;;11.60;5.27;;;8.90;99.90;;;;;;5007440;28;20439;-74
2022/05/06 04:19:36;;;;;;;9.57;6.00;;;8.70;99.90;;;;;;5009390;28;21528;-74
2022/05/06 04:24:50;;;;;;;8.33;3.93;;;9.00;99.90;;;;;;5000168;28;20445;-74
2022/05/06 04:27:17;;;;;;;7.07;4.40;;;9.00;99.90;;;;;;5010812;28;20492;-74
2022/05/06 04:29:44;;;;;;;14.27;6.07;;;9.20;99.90;;;;;;5013459;28;20440;-73
2022/05/06 04:32:11;;;;;;;11.23;4.80;;;9.20;99.90;;;;;;5011104;28;20541;-72
2022/05/06 04:34:38;;;;;;;10.57;5.70;;;9.00;99.90;;;;;;5006974;28;21077;-72
2022/05/06 04:37:06;;;;;;;21.50;3.97;;;9.00;99.90;;;;;;4997503;28;20468;-72
2022/05/06 04:39:33;;;;;;;21.93;4.80;;;9.20;99.90;;;;;;4997422;28;20900;-72
2022/05/06 04:42:02;;;;;;;23.17;6.00;;;9.20;99.90;;;;;;4997842;28;20463;-72
2022/05/06 04:44:29;;;;;;;11.90;5.13;;;9.30;99.90;;;;;;5007941;28;20455;-72
2022/05/06 04:46:55;;;;;;;8.67;5.30;;;9.30;99.90;;;;;;5000946;28;20467;-72
2022/05/06 04:49:22;;;;;;;19.70;7.07;;;9.30;99.90;;;;;;5008712;28;20458;-74
2022/05/06 04:51:50;;;;;;;13.27;4.83;;;9.40;99.90;;;;;;5006523;28;20540;-73
2022/05/06 04:54:17;;;;;;;8.03;5.33;;;9.50;99.90;;;;;;5004543;28;20488;-73
2022/05/06 04:56:44;;;;;;;29.97;6.73;;;9.70;99.90;;;;;;5008954;28;20432;-73
2022/05/06 04:59:13;;;;;;;20.60;6.73;;;10.10;99.90;;;;;;5003892;28;20466;-73
2022/05/06 05:01:40;;;;;;;16.30;6.00;;;10.40;99.90;;;;;;5006075;28;20500;-73
2022/05/06 05:04:09;;;;;;;24.23;7.50;;;10.70;99.90;;;;;;4992356;28;21158;-72
2022/05/06 05:06:36;;;;;;;15.27;5.17;;;11.00;99.90;;;;;;4996293;28;20443;-72
2022/05/06 05:09:03;;;;;;;30.90;6.03;;;11.30;99.90;;;;;;5006869;28;21127;-73
2022/05/06 05:11:29;;;;;;;12.40;4.77;;;11.40;99.90;;;;;;4997020;28;20511;-72
2022/05/06 05:13:56;;;;;;;10.10;4.97;;;11.60;99.90;;;;;;4996802;28;20493;-72
2022/05/06 05:16:24;;;;;;;20.97;6.30;;;11.80;99.90;;;;;;5008476;28;20476;-72
2022/05/06 05:18:51;;;;;;;15.00;4.60;;;12.10;99.90;;;;;;5004967;28;20512;-73
2022/05/06 05:21:18;;;;;;;18.30;6.33;;;12.40;99.90;;;;;;5013309;28;20551;-74
2022/05/06 05:23:46;;;;;;;24.47;4.93;;;12.70;99.90;;;;;;5013461;28;20504;-73
2022/05/06 05:26:12;;;;;;;21.97;5.90;;;13.00;99.90;;;;;;5005146;28;20496;-73
2022/05/06 05:28:39;;;;;;;14.60;4.87;;;12.70;99.90;;;;;;5003547;28;20465;-73
2022/05/06 05:31:06;;;;;;;16.30;7.10;;;13.10;99.90;;;;;;5010110;28;20607;-72
2022/05/06 05:33:34;;;;;;;9.33;5.27;;;13.70;99.90;;;;;;5004879;28;20488;-72
2022/05/06 05:36:01;;;;;;;13.50;6.00;;;14.10;99.90;;;;;;5007978;28;20460;-72
2022/05/06 05:38:28;;;;;;;15.20;6.20;;;14.40;99.90;;;;;;5007356;28;20514;-73
2022/05/06 05:40:55;;;;;;;20.53;7.77;;;14.60;99.90;;;;;;5012368;28;20478;-71
2022/05/06 05:48:53;;;;;;;30.50;6.47;;;15.20;99.90;;;;;;4999539;28;20452;-74
2022/05/06 05:51:19;;;;;;;38.23;8.47;;;15.20;99.90;;;;;;5005204;28;20472;-72
2022/05/06 05:53:46;;;;;;;30.50;7.30;;;15.30;99.90;;;;;;5004025;28;20470;-72
2022/05/06 05:56:13;;;;;;;34.13;9.27;;;15.50;99.90;;;;;;5010650;28;20541;-74
2022/05/06 05:58:40;;;;;;;14.13;6.43;;;16.10;99.90;;;;;;5003970;28;20861;-74
2022/05/06 06:01:06;;;;;;;26.87;6.93;;;16.20;99.90;;;;;;5011332;28;20498;-72
2022/05/06 06:03:33;;;;;;;16.83;6.80;;;16.50;99.90;;;;;;5035300;22;20570;-71
2022/05/06 06:06:01;;;;;;;13.60;8.30;;;16.40;99.90;;;;;;5002894;28;20517;-71
2022/05/06 06:08:27;;;;;;;12.40;6.10;;;16.20;99.90;;;;;;4981205;28;20611;-71
2022/05/06 06:10:54;;;;;;;9.90;7.03;;;16.40;99.90;;;;;;5010899;28;21503;-69
2022/05/06 06:13:22;;;;;;;14.20;7.73;;;16.70;99.90;;;;;;5013597;28;20457;-70
2022/05/06 06:15:48;;;;;;;11.17;6.00;;;17.10;99.90;;;;;;5012460;28;20485;-71
2022/05/06 06:18:15;;;;;;;10.90;6.10;;;17.30;99.90;;;;;;5015638;28;20471;-70
2022/05/06 06:20:42;;;;;;;9.73;5.60;;;17.40;99.90;;;;;;5010788;28;20481;-69
2022/05/06 06:23:10;;;;;;;11.93;6.70;;;17.30;99.90;;;;;;5013529;28;20457;-70
2022/05/06 06:25:37;;;;;;;19.03;7.60;;;17.60;99.90;;;;;;5022140;28;20465;-70
2022/05/06 06:28:03;;;;;;;11.50;7.13;;;17.90;99.90;;;;;;5021484;28;20515;-70
2022/05/06 06:30:30;;;;;;;9.40;6.63;;;18.40;99.90;;;;;;5017476;28;21095;-70
2022/05/06 06:32:57;;;;;;;10.60;7.57;;;18.70;99.90;;;;;;5015070;28;21009;-68
2022/05/06 06:35:24;;;;;;;11.63;5.73;;;18.90;99.90;;;;;;5020056;28;20489;-70
2022/05/06 06:37:50;;;;;;;11.50;7.70;;;19.00;99.90;;;;;;5022139;28;20461;-69
2022/05/06 06:40:18;;;;;;;11.57;6.93;;;19.10;99.90;;;;;;5011271;28;20485;-70
2022/05/06 06:42:46;;;;;;;14.10;7.40;;;19.50;99.90;;;;;;5010533;28;21010;-69
2022/05/06 06:45:13;;;;;;;10.83;7.70;;;20.00;99.90;;;;;;5019478;28;20504;-70
2022/05/06 06:47:39;;;;;;;8.37;6.10;;;20.30;99.90;;;;;;5010457;28;20464;-71
2022/05/06 06:50:07;;;;;;;9.97;7.30;;;20.40;99.90;;;;;;5006882;28;20480;-71
2022/05/06 06:52:33;;;;;;;8.80;6.37;;;19.90;99.90;;;;;;5007869;28;20520;-70
2022/05/06 06:55:00;;;;;;;11.00;7.07;;;20.30;99.90;;;;;;5012417;28;20484;-71
2022/05/06 06:57:30;;;;;;;8.50;6.80;;;20.50;99.90;;;;;;5015255;28;20489;-74
2022/05/06 06:59:57;;;;;;;11.90;6.60;;;20.90;99.90;;;;;;5022475;28;20494;-73
2022/05/06 07:02:23;;;;;;;11.73;7.30;;;21.00;99.90;;;;;;5002019;28;20473;-74
2022/05/06 07:04:51;;;;;;;13.20;7.17;;;21.60;99.90;;;;;;5011654;28;20485;-73
2022/05/06 07:12:48;;;;;;;11.73;8.17;;;21.80;99.90;;;;;;5001376;28;20461;-73
2022/05/06 07:15:15;;;;;;;16.73;7.50;;;22.10;99.90;;;;;;5014470;28;21116;-73
2022/05/06 07:17:42;;;;;;;12.50;8.67;;;22.10;99.90;;;;;;5011209;28;20537;-74
2022/05/06 07:20:10;;;;;;;9.17;5.90;;;22.10;99.90;;;;;;4996707;28;20481;-73
2022/05/06 07:22:37;;;;;;;14.80;7.53;;;22.60;99.20;;;;;;5004251;28;20462;-74
2022/05/06 07:25:05;;;;;;;7.37;5.53;;;22.80;99.00;;;;;;5013111;28;21007;-73
2022/05/06 07:27:34;;;;;;;8.67;7.77;;;23.60;96.80;;;;;;5019845;28;20461;-73
2022/05/06 07:30:02;;;;;;;14.70;8.07;;;23.70;97.10;;;;;;5017914;28;20493;-73
2022/05/06 07:32:30;;;;;;;10.50;8.47;;;24.10;96.50;;;;;;5016008;28;20519;-73
2022/05/06 07:34:57;;;;;;;11.67;8.07;;;24.40;96.50;;;;;;5005490;28;20513;-73
2022/05/06 07:37:24;;;;;;;8.97;5.47;;;24.30;95.50;;;;;;5019059;28;21201;-73
2022/05/06 07:39:51;;;;;;;18.47;7.63;;;24.30;94.60;;;;;;5007195;28;20565;-74
2022/05/06 07:42:17;;;;;;;12.97;7.00;;;24.50;94.50;;;;;;5016157;28;20462;-74
2022/05/06 07:44:44;;;;;;;18.07;6.53;;;24.30;92.70;;;;;;5015663;28;20483;-74
2022/05/06 07:47:12;;;;;;;14.73;7.50;;;24.50;93.20;;;;;;5005775;28;20474;-74
2022/05/06 07:49:39;;;;;;;12.30;7.77;;;24.90;91.80;;;;;;5014439;28;20474;-73
2022/05/06 07:52:06;;;;;;;8.93;6.80;;;24.20;92.10;;;;;;5017226;28;20454;-74
2022/05/06 07:54:32;;;;;;;10.37;6.53;;;24.70;92.90;;;;;;5014850;28;20596;-74
2022/05/06 07:56:59;;;;;;;10.80;7.00;;;24.90;90.80;;;;;;5019177;28;20471;-73
2022/05/06 07:59:26;;;;;;;16.23;6.53;;;24.20;90.90;;;;;;5019784;28;20496;-73
2022/05/06 08:04:38;;;;;;;11.00;6.70;;;24.00;90.50;;;;;;5011249;28;20532;-73
2022/05/06 08:07:09;;;;;;;10.87;5.97;;;24.50;90.00;;;;;;5014702;28;20981;-72
2022/05/06 08:09:36;;;;;;;11.53;6.70;;;25.20;89.00;;;;;;5010330;28;20559;-73
2022/05/06 08:12:04;;;;;;;10.83;6.80;;;26.10;86.80;;;;;;5013389;28;20532;-73
2022/05/06 08:14:30;;;;;;;8.77;6.33;;;26.70;83.40;;;;;;5017007;28;20549;-73
2022/05/06 08:17:06;;;;;;;13.53;7.60;;;27.10;80.80;;;;;;5013955;28;20524;-73
2022/05/06 08:19:34;;;;;;;9.17;5.93;;;27.20;79.30;;;;;;5018518;28;20476;-73
2022/05/06 08:22:01;;;;;;;15.80;7.17;;;27.30;76.30;;;;;;5020236;28;20488;-74
2022/05/06 08:24:33;;;;;;;12.70;6.60;;;27.70;74.70;;;;;;5015210;28;20557;-74
2022/05/06 08:27:01;;;;;;;8.37;6.27;;;28.00;71.80;;;;;;5006427;28;20466;-73
2022/05/06 08:29:29;;;;;;;13.83;6.97;;;26.30;69.40;;;;;;5017163;28;20550;-73
2022/05/06 08:31:56;;;;;;;9.93;7.00;;;26.80;71.50;;;;;;5018764;28;20513;-74
2022/05/06 08:34:26;;;;;;;15.53;5.67;;;27.20;68.60;;;;;;5021053;28;20510;-74
2022/05/06 08:36:53;;;;;;;12.97;8.00;;;27.30;68.70;;;;;;5015379;28;20474;-74
2022/05/06 08:39:22;;;;;;;7.80;5.37;;;27.90;69.60;;;;;;5016184;28;20737;-74
2022/05/06 08:41:49;;;;;;;11.83;6.77;;;28.40;67.80;;;;;;5015837;28;20490;-74
2022/05/06 08:52:41;;;;;;;6.90;5.60;;;28.20;65.10;;;;;;5014417;28;21118;-73
2022/05/06 08:55:09;;;;;;;8.07;5.50;;;28.40;62.70;;;;;;5015659;28;21039;-73
2022/05/06 08:57:36;;;;;;;8.50;5.70;;;27.80;63.40;;;;;;5018177;28;21899;-74
2022/05/06 09:00:04;;;;;;;11.53;6.97;;;28.40;64.50;;;;;;5018689;28;20527;-74
2022/05/06 09:02:31;;;;;;;9.80;5.00;;;28.80;63.10;;;;;;5013695;28;20502;-74
2022/05/06 09:04:58;;;;;;;8.03;6.37;;;28.00;62.30;;;;;;5014620;28;20619;-74
2022/05/06 09:07:25;;;;;;;9.53;7.10;;;27.50;60.70;;;;;;5017761;28;20459;-73
2022/05/06 09:10:16;;;;;;;12.57;7.83;;;26.40;63.10;;;;;;5016351;28;20883;-73
2022/05/06 09:12:44;;;;;;;10.93;6.63;;;27.20;65.20;;;;;;5005085;28;21137;-73
2022/05/06 09:17:57;;;;;;;10.73;7.33;;;28.70;61.70;;;;;;5012820;28;20457;-74
2022/05/06 09:20:25;;;;;;;16.50;8.70;;;28.40;63.30;;;;;;5013275;28;20478;-74
2022/05/06 09:22:52;;;;;;;11.33;8.30;;;29.00;63.00;;;;;;5018184;28;20468;-74
2022/05/06 09:25:39;;;;;;;10.00;7.47;;;29.00;59.50;;;;;;5017861;28;21127;-74
2022/05/06 09:28:07;;;;;;;10.67;7.70;;;28.60;63.00;;;;;;5013688;28;20555;-75
2022/05/06 09:30:34;;;;;;;11.60;8.17;;;29.30;58.80;;;;;;5018636;28;20481;-74
2022/05/06 09:33:01;;;;;;;9.80;8.37;;;28.80;59.40;;;;;;5010725;28;20510;-74
2022/05/06 09:35:28;;;;;;;11.33;9.00;;;28.40;59.40;;;;;;5016849;28;21011;-73
2022/05/06 09:37:55;;;;;;;14.83;10.43;;;28.10;59.20;;;;;;5010474;28;20557;-74
2022/05/06 09:40:23;;;;;;;12.30;9.87;;;28.00;60.00;;;;;;5010676;28;20463;-73
2022/05/06 09:42:59;;;;;;;11.00;9.53;;;28.40;61.10;;;;;;5016087;28;20543;-71
2022/05/06 09:45:31;;;;;;;13.67;8.90;;;29.00;59.40;;;;;;5015496;28;20477;-74
2022/05/06 09:48:00;;;;;;;12.03;9.50;;;29.80;58.50;;;;;;5018460;28;21018;-73
2022/05/06 09:50:34;;;;;;;18.53;11.30;;;28.60;59.60;;;;;;5017842;28;20528;-73
2022/05/06 09:53:02;;;;;;;16.27;9.70;;;29.20;59.00;;;;;;5017262;28;20466;-73
2022/05/06 09:55:30;;;;;;;13.37;9.00;;;28.70;59.70;;;;;;5018306;28;20486;-73
2022/05/06 09:57:59;;;;;;;12.83;8.70;;;28.80;60.20;;;;;;5014267;28;20461;-73
2022/05/06 10:00:27;;;;;;;15.70;10.37;;;27.60;60.80;;;;;;5024015;28;20519;-73
2022/05/06 10:02:53;;;;;;;14.07;9.63;;;26.70;66.50;;;;;;5019539;28;20458;-74
2022/05/06 10:05:20;;;;;;;13.63;10.97;;;26.50;63.80;;;;;;5016901;28;20495;-74
2022/05/06 10:07:47;;;;;;;13.67;9.73;;;26.60;64.30;;;;;;5019458;28;20469;-73
2022/05/06 10:10:21;;;;;;;16.40;10.00;;;26.50;65.30;;;;;;5020935;28;20473;-73
2022/05/06 10:12:53;;;;;;;15.43;11.17;;;25.80;67.80;;;;;;5020004;28;20451;-72
2022/05/06 10:15:23;;;;;;;16.57;9.17;;;24.90;67.70;;;;;;5011844;28;20477;-73
2022/05/06 10:17:52;;;;;;;14.63;9.73;;;24.10;69.20;;;;;;5009727;28;20470;-73
2022/05/06 10:20:59;;;;;;;22.43;9.47;;;23.80;71.50;;;;;;5015197;28;20526;-73
2022/05/06 10:23:48;;;;;;;15.60;10.50;;;23.30;71.60;;;;;;5015036;28;20458;-74
2022/05/06 10:26:41;;;;;;;15.07;8.97;;;23.50;70.20;;;;;;5017430;28;20505;-73
2022/05/06 10:35:10;;;;;;;9.13;7.20;;;27.40;65.40;;;;;;5015685;28;20488;-74
2022/05/06 10:37:38;;;;;;;7.67;5.77;;;29.40;60.90;;;;;;5008653;28;20466;-73
2022/05/06 10:40:29;;;;;;;11.53;6.27;;;30.20;59.10;;;;;;5015417;28;20470;-74
2022/05/06 10:42:56;;;;;;;16.67;9.80;;;30.60;56.60;;;;;;5015172;28;20550;-74
2022/05/06 10:45:24;;;;;;;7.63;6.20;;;29.70;57.90;;;;;;5018338;28;20535;-74
2022/05/06 10:47:53;;;;;;;8.13;5.57;;;28.30;57.30;;;;;;5015762;28;20466;-73
2022/05/06 10:50:23;;;;;;;7.40;5.53;;;26.70;57.30;;;;;;5012827;28;21220;-72
2022/05/06 10:52:54;;;;;;;6.77;4.97;;;25.80;59.20;;;;;;5015583;28;20557;-72
2022/05/06 10:55:23;;;;;;;8.60;6.80;;;25.80;60.80;;;;;;5007901;28;20535;-74
2022/05/06 10:58:02;;;;;;;6.33;5.60;;;25.80;60.50;;;;;;5019002;28;20462;-75
2022/05/06 11:00:32;;;;;;;8.20;6.60;;;25.70;60.70;;;;;;5004034;28;21687;-74
2022/05/06 11:03:02;;;;;;;9.63;6.57;;;26.30;61.80;;;;;;4998367;28;20478;-74
2022/05/06 11:05:31;;;;;;;7.10;5.80;;;28.40;59.50;;;;;;5004960;28;20499;-74
2022/05/06 11:08:00;;;;;;;8.17;5.60;;;28.90;57.00;;;;;;5014728;28;20867;-74
2022/05/06 11:10:30;;;;;;;8.93;5.83;;;29.50;54.90;;;;;;5008567;28;20532;-73
2022/05/06 11:12:58;;;;;;;21.40;6.57;;;28.80;57.60;;;;;;5004119;28;20467;-73
2022/05/06 11:15:28;;;;;;;9.07;6.13;;;29.40;56.00;;;;;;5001172;28;20530;-73
2022/05/06 11:17:58;;;;;;;7.53;5.70;;;29.30;53.80;;;;;;5007638;28;20458;-74
2022/05/06 11:20:28;;;;;;;9.00;7.40;;;30.00;54.30;;;;;;5021445;28;20828;-73
2022/05/06 11:23:00;;;;;;;9.57;7.00;;;29.50;54.60;;;;;;5012013;28;20548;-74
2022/05/06 11:25:29;;;;;;;14.10;8.03;;;29.50;56.00;;;;;;5017334;28;21124;-73
2022/05/06 11:27:58;;;;;;;14.53;12.37;;;29.20;56.70;;;;;;5008446;28;20470;-73
2022/05/06 11:30:27;;;;;;;19.63;11.40;;;28.20;58.60;;;;;;5008013;28;20475;-74
2022/05/06 11:32:55;;;;;;;19.03;10.60;;;27.10;63.80;;;;;;5012572;28;20743;-73
2022/05/06 11:35:29;;;;;;;14.80;10.60;;;26.80;64.10;;;;;;5014422;28;20478;-72
2022/05/06 11:38:00;;;;;;;13.83;10.20;;;26.30;65.90;;;;;;5015393;28;20528;-73
2022/05/06 11:40:36;;;;;;;20.63;11.07;;;25.60;67.40;;;;;;5014915;28;21305;-72
2022/05/06 11:43:08;;;;;;;16.03;10.77;;;25.20;69.00;;;;;;5013611;28;20597;-73
2022/05/06 11:48:22;;;;;;;15.07;10.10;;;24.40;70.10;;;;;;5014970;28;20968;-73
2022/05/06 11:51:03;;;;;;;16.60;8.77;;;24.30;72.00;;;;;;5012398;28;21184;-74
2022/05/06 11:53:32;;;;;;;13.80;10.13;;;24.30;70.80;;;;;;5015111;28;20469;-73
2022/05/06 11:55:59;;;;;;;14.70;9.37;;;24.20;71.40;;;;;;5014640;28;20466;-72
2022/05/06 11:58:27;;;;;;;15.03;8.83;;;24.20;72.00;;;;;;5020936;28;20535;-73
2022/05/06 12:00:55;;;;;;;13.80;8.47;;;24.30;72.60;;;;;;5004202;28;20469;-73
2022/05/06 12:03:24;;;;;;;13.40;9.73;;;24.80;70.50;;;;;;5014728;28;20970;-74
2022/05/06 12:06:15;;;;;;;10.57;8.47;;;24.80;70.50;;;;;;4855396;22;20656;-76
2022/05/06 12:09:21;;;;;;;10.20;7.10;;;25.10;69.10;;;;;;5017416;28;20473;-78
2022/05/06 12:12:37;;;;;;;10.00;7.37;;;25.70;67.30;;;;;;4976251;28;20498;-77
2022/05/06 12:16:01;;;;;;;14.00;7.30;;;26.80;67.40;;;;;;4941940;28;20482;-77
2022/05/06 12:18:34;;;;;;;11.27;7.30;;;28.00;63.50;;;;;;4998541;28;20961;-76
2022/05/06 12:24:42;;;;;;;11.07;6.70;;;27.70;59.50;;;;;;5001555;28;20513;-77
2022/05/06 12:27:39;;;;;;;;;;;;;;;;;;;;;
2022/05/06 12:33:49;;;;;;;;;;;;;;;;;;;;;
2022/05/06 12:36:40;;;;;;;9.37;6.47;;;31.20;55.50;;;;;;4981273;28;20492;-77
2022/05/06 12:42:20;;;;;;;20.23;6.53;;;31.30;51.20;;;;;;4993372;28;20608;-77
2022/05/06 12:51:17;;;;;;;10.77;7.60;;;28.10;55.30;;;;;;4931688;28;21464;-76
2022/05/06 12:53:49;;;;;;;8.93;7.97;;;26.90;56.30;;;;;;5021194;28;20446;-76
2022/05/06 12:56:26;;;;;;;15.83;9.37;;;26.00;58.80;;;;;;5021160;28;21023;-77
2022/05/06 12:58:53;;;;;;;13.13;11.07;;;25.60;60.30;;;;;;5022301;28;20478;-76
2022/05/06 13:01:45;;;;;;;21.53;12.33;;;25.20;62.20;;;;;;5021852;28;20462;-77
2022/05/06 13:04:59;;;;;;;12.93;9.20;;;24.70;65.10;;;;;;5022919;28;20976;-77
2022/05/06 13:10:47;;;;;;;20.13;12.23;;;25.10;64.20;;;;;;5006532;28;20981;-77
2022/05/06 13:13:37;;;;;;;23.80;12.80;;;25.20;64.50;;;;;;5013351;28;20512;-78
2022/05/06 13:23:02;;;;;;;;;;;;;;;;;;;;;
2022/05/06 13:29:12;;;;;;;13.13;8.20;;;25.60;62.60;;;;;;5009626;28;20480;-77
2022/05/06 13:32:10;;;;;;;10.93;7.63;;;25.20;64.20;;;;;;5015524;28;20537;-77
2022/05/06 13:38:05;;;;;;;11.90;9.30;;;26.20;62.90;;;;;;5021570;28;21031;-77
2022/05/06 13:40:35;;;;;;;10.97;8.37;;;27.20;61.10;;;;;;5002696;28;20516;-76
2022/05/06 13:45:44;;;;;;;13.57;8.33;;;26.70;62.50;;;;;;5010644;28;20565;-75
2022/05/06 13:48:18;;;;;;;12.07;8.33;;;27.20;59.80;;;;;;5018579;28;20517;-77
2022/05/06 13:50:46;;;;;;;10.37;8.70;;;27.80;61.00;;;;;;5016817;28;20462;-77
2022/05/06 13:53:12;;;;;;;14.37;8.77;;;29.00;57.20;;;;;;5017535;28;20493;-77
2022/05/06 14:01:14;;;;;;;9.73;8.33;;;27.40;57.70;;;;;;5009589;28;20580;-78
2022/05/06 14:03:45;;;;;;;11.33;8.20;;;27.00;58.70;;;;;;5009980;28;20487;-77
2022/05/06 14:06:17;;;;;;;12.43;9.73;;;26.50;60.00;;;;;;5016750;28;20993;-77
2022/05/06 14:08:46;;;;;;;11.53;8.20;;;26.50;61.40;;;;;;5015666;28;20453;-77
2022/05/06 14:11:30;;;;;;;15.13;9.17;;;27.70;58.70;;;;;;5012478;28;20463;-78
2022/05/06 14:14:23;;;;;;;13.10;10.17;;;28.60;56.60;;;;;;4995714;28;20501;-78
2022/05/06 14:17:07;;;;;;;11.07;7.93;;;28.40;56.40;;;;;;5002034;28;20830;-80
2022/05/06 14:19:42;;;;;;;11.07;7.23;;;28.10;57.00;;;;;;5016720;28;20578;-77
2022/05/06 14:22:09;;;;;;;10.20;7.20;;;27.50;59.10;;;;;;5012828;28;20581;-74
2022/05/06 14:24:35;;;;;;;10.60;8.70;;;27.20;57.40;;;;;;5025639;28;20497;-77
2022/05/06 14:27:25;;;;;;;10.00;7.77;;;26.60;56.80;;;;;;5019476;28;20489;-78